ADDS METAR Data INFO
IDs: Format: Raw Decoded Include TAF

Data at: 0324 UTC 19 Jul 2018

KHHR 190253Z 24007KT 10SM CLR 22/18 A2995 RMK AO2 SLP140 T02220183 55001
KHHR 190153Z 24007KT 10SM CLR 22/18 A2994 RMK AO2 SLP137 T02220183
KHHR 190053Z 29007KT 10SM CLR 23/18 A2994 RMK AO2 SLP136 T02280183
KHHR 182353Z 25012KT 10SM CLR 24/18 A2995 RMK AO2 SLP141 T02390183 10272 20233 56008
KHHR 182253Z 25010KT 10SM CLR 24/19 A2996 RMK AO2 SLP142 T02440189
KHHR 182153Z 27009KT 10SM CLR 26/19 A2997 RMK AO2 SLP147 T02560189
KHHR 182053Z 25010KT 10SM CLR 27/19 A2998 RMK AO2 SLP149 T02720189 58018
KHHR 181953Z 26007KT 10SM CLR 24/19 A3001 RMK AO2 SLP159 T02390189
KHHR 181853Z 13004KT 8SM CLR 24/18 A3002 RMK AO2 LTG DSNT W AND NW SLP164 T02440183
KHHR 181801Z VRB04KT 8SM SCT018 24/18 A3003 RMK AO2 T02390183
KHHR 181753Z 11007KT 8SM BKN017 24/18 A3003 RMK AO2 SLP167 T02390183 10239 20211 51019
KHHR 181653Z 10004KT 7SM OVC016 23/18 A3002 RMK AO2 SLP164 T02280183
KHHR 181553Z 18005KT 8SM OVC016 22/18 A3001 RMK AO2 SLP160 T02220183
KHHR 181453Z 29004KT 8SM BKN015 22/18 A2997 RMK AO2 SLP148 T02220178 55010
KHHR 181450Z 30004KT 8SM BKN015 22/18 A2997 RMK AO2
KHHR 181430Z 27006KT 7SM BKN014 22/18 A2998 RMK AO2 T02170183
KHHR 181353Z 23005KT 10SM OVC016 22/18 A3000 RMK AO2 SLP157 T02170178
KHHR 181253Z AUTO 14004KT 10SM OVC016 22/18 A3000 RMK AO2 SLP159 T02170178
KHHR 181208Z AUTO 09004KT 10SM OVC015 22/18 A3001 RMK AO2 T02170178
KHHR 181153Z AUTO 16003KT 10SM OVC014 21/18 A3000 RMK AO2 SLP158 T02110178 10211 20206 53009
KHHR 181053Z AUTO 00000KT 10SM OVC013 21/18 A2998 RMK AO2 SLP152 T02060178
KHHR 180953Z AUTO 00000KT 10SM OVC014 21/18 A2997 RMK AO2 SLP148 T02110178
KHHR 180923Z AUTO 00000KT 10SM BKN015 21/18 A2998 RMK AO2 T02110178
KHHR 180853Z AUTO 23004KT 10SM OVC014 21/18 A2998 RMK AO2 SLP149 T02060178 55004
KHHR 180851Z AUTO 23004KT 10SM OVC014 21/18 A2997 RMK AO2
KHHR 180753Z AUTO 00000KT 10SM OVC015 21/17 A2997 RMK AO2 SLP149 T02110172 402500206
KHHR 180653Z AUTO 31003KT 10SM OVC016 21/17 A2999 RMK AO2 SLP154 T02110172
KHHR 180600Z AUTO 25003KT 10SM BKN020 21/17 A3001 RMK AO2 T02060172
KHHR 180553Z AUTO 21003KT 10SM SCT012 21/18 A3001 RMK AO2 SLP161 T02060178 10239 20206 53023
KHHR 180453Z 24007KT 10SM SCT012 21/18 A2998 RMK AO2 SLP151 T02060178
KHHR 180353Z 30006KT 10SM FEW012 21/17 A2996 RMK AO2 SLP142 T02060172
KHHR 180253Z 28006KT 10SM SCT013 21/18 A2994 RMK AO2 SLP138 T02110178 53002
KHHR 180217Z 25008KT 10SM SCT012 22/18 A2994 RMK AO2 T02170178
KHHR 180153Z 25009KT 10SM BKN012 22/18 A2993 RMK AO2 SLP135 T02170178
KHHR 180110Z 28007G15KT 10SM BKN013 22/18 A2993 RMK AO2 T02220183
KHHR 180053Z 26012KT 10SM SCT013 23/18 A2992 RMK AO2 SLP131 T02330183
KHHR 172353Z 25012KT 10SM CLR 23/18 A2993 RMK AO2 SLP135 T02330183 10250 20222 56011
KHHR 172253Z 25013KT 10SM CLR 24/18 A2994 RMK AO2 SLP137 T02390183
KHHR 172153Z 28009G16KT 10SM CLR 24/18 A2995 RMK AO2 SLP140 T02440183
KHHR 172053Z 26011KT 10SM CLR 24/18 A2997 RMK AO2 SLP146 T02440183 56007
KHHR 171953Z VRB06KT 8SM SCT016 24/18 A2997 RMK AO2 SLP148 T02390183
KHHR 171853Z 26007KT 7SM OVC016 23/19 A2999 RMK AO2 SLP153 T02280189
KHHR 171753Z 24004KT 7SM OVC016 22/18 A3000 RMK AO2 SLP156 T02220183 10222 20206 51001
KHHR 171653Z 28004KT 6SM HZ OVC014 22/18 A2999 RMK AO2 SLP155 T02170183
KHHR 171553Z 29003KT 5SM HZ OVC010 21/18 A3000 RMK AO2 SLP157 T02110183